sensor_id;sensor_type;location;lat;lon;timestamp;temperature;humidity
43089;DHT22;28709;52.030;5.652;2023-07-09T00:01:47;24.00;93.00
43089;DHT22;28709;52.030;5.652;2023-07-09T00:04:13;24.00;93.10
43089;DHT22;28709;52.030;5.652;2023-07-09T00:06:40;23.90;93.10
43089;DHT22;28709;52.030;5.652;2023-07-09T00:09:13;23.90;93.20
43089;DHT22;28709;52.030;5.652;2023-07-09T00:11:40;23.90;93.30
43089;DHT22;28709;52.030;5.652;2023-07-09T00:14:06;23.90;93.30
43089;DHT22;28709;52.030;5.652;2023-07-09T00:16:33;23.90;93.40
43089;DHT22;28709;52.030;5.652;2023-07-09T00:18:58;23.80;93.40
43089;DHT22;28709;52.030;5.652;2023-07-09T00:21:24;23.80;93.50
43089;DHT22;28709;52.030;5.652;2023-07-09T00:23:49;23.80;93.60
43089;DHT22;28709;52.030;5.652;2023-07-09T00:26:16;23.70;93.60
43089;DHT22;28709;52.030;5.652;2023-07-09T00:28:42;23.70;93.60
43089;DHT22;28709;52.030;5.652;2023-07-09T00:31:13;23.70;93.90
43089;DHT22;28709;52.030;5.652;2023-07-09T00:33:40;23.70;93.70
43089;DHT22;28709;52.030;5.652;2023-07-09T00:36:30;23.70;93.70
43089;DHT22;28709;52.030;5.652;2023-07-09T00:39:00;23.70;93.80
43089;DHT22;28709;52.030;5.652;2023-07-09T00:41:35;23.70;93.70
43089;DHT22;28709;52.030;5.652;2023-07-09T00:51:55;23.70;93.90
43089;DHT22;28709;52.030;5.652;2023-07-09T00:54:37;23.70;93.90
43089;DHT22;28709;52.030;5.652;2023-07-09T00:57:13;23.70;94.00
43089;DHT22;28709;52.030;5.652;2023-07-09T00:59:44;23.70;94.10
43089;DHT22;28709;52.030;5.652;2023-07-09T01:02:11;23.70;94.10
43089;DHT22;28709;52.030;5.652;2023-07-09T01:04:37;23.60;94.20
43089;DHT22;28709;52.030;5.652;2023-07-09T01:07:05;23.60;94.50
43089;DHT22;28709;52.030;5.652;2023-07-09T01:09:30;23.60;94.30
43089;DHT22;28709;52.030;5.652;2023-07-09T01:11:58;23.60;94.40
43089;DHT22;28709;52.030;5.652;2023-07-09T01:14:26;23.50;94.40
43089;DHT22;28709;52.030;5.652;2023-07-09T01:16:58;23.60;94.50
43089;DHT22;28709;52.030;5.652;2023-07-09T01:19:26;23.60;94.60
43089;DHT22;28709;52.030;5.652;2023-07-09T01:21:58;23.50;94.70
43089;DHT22;28709;52.030;5.652;2023-07-09T01:24:50;23.50;95.10
43089;DHT22;28709;52.030;5.652;2023-07-09T01:27:18;23.50;94.90
43089;DHT22;28709;52.030;5.652;2023-07-09T01:29:45;23.50;94.90
43089;DHT22;28709;52.030;5.652;2023-07-09T01:32:16;23.40;95.00
43089;DHT22;28709;52.030;5.652;2023-07-09T01:34:44;23.40;95.10
43089;DHT22;28709;52.030;5.652;2023-07-09T01:37:15;23.40;95.10
43089;DHT22;28709;52.030;5.652;2023-07-09T01:39:41;23.30;95.20
43089;DHT22;28709;52.030;5.652;2023-07-09T01:42:07;23.30;95.30
43089;DHT22;28709;52.030;5.652;2023-07-09T01:44:34;23.30;95.40
43089;DHT22;28709;52.030;5.652;2023-07-09T01:47:02;23.20;95.50
43089;DHT22;28709;52.030;5.652;2023-07-09T01:49:30;23.20;95.60
43089;DHT22;28709;52.030;5.652;2023-07-09T01:51:59;23.20;95.80
43089;DHT22;28709;52.030;5.652;2023-07-09T01:54:27;23.10;95.90
43089;DHT22;28709;52.030;5.652;2023-07-09T01:56:53;23.10;96.00
43089;DHT22;28709;52.030;5.652;2023-07-09T01:59:22;23.10;96.10
43089;DHT22;28709;52.030;5.652;2023-07-09T02:01:47;23.00;96.10
43089;DHT22;28709;52.030;5.652;2023-07-09T02:04:13;23.00;96.20
43089;DHT22;28709;52.030;5.652;2023-07-09T02:06:39;23.00;96.30
43089;DHT22;28709;52.030;5.652;2023-07-09T02:09:04;23.00;96.40
43089;DHT22;28709;52.030;5.652;2023-07-09T02:11:30;23.00;96.50
43089;DHT22;28709;52.030;5.652;2023-07-09T02:13:55;22.90;96.60
43089;DHT22;28709;52.030;5.652;2023-07-09T02:16:21;22.90;96.70
43089;DHT22;28709;52.030;5.652;2023-07-09T02:18:47;22.90;96.80
43089;DHT22;28709;52.030;5.652;2023-07-09T02:21:12;22.90;96.90
43089;DHT22;28709;52.030;5.652;2023-07-09T02:23:38;22.90;97.00
43089;DHT22;28709;52.030;5.652;2023-07-09T02:26:03;22.80;97.00
43089;DHT22;28709;52.030;5.652;2023-07-09T02:28:29;22.80;97.10
43089;DHT22;28709;52.030;5.652;2023-07-09T02:30:55;22.80;97.20
43089;DHT22;28709;52.030;5.652;2023-07-09T02:33:20;22.70;97.30
43089;DHT22;28709;52.030;5.652;2023-07-09T02:35:46;22.80;97.40
43089;DHT22;28709;52.030;5.652;2023-07-09T02:38:12;22.70;97.50
43089;DHT22;28709;52.030;5.652;2023-07-09T02:40:38;22.70;97.60
43089;DHT22;28709;52.030;5.652;2023-07-09T02:43:04;22.60;97.80
43089;DHT22;28709;52.030;5.652;2023-07-09T02:45:30;22.60;97.90
43089;DHT22;28709;52.030;5.652;2023-07-09T02:47:55;22.60;97.90
43089;DHT22;28709;52.030;5.652;2023-07-09T02:50:21;22.60;98.00
43089;DHT22;28709;52.030;5.652;2023-07-09T02:52:46;22.50;98.10
43089;DHT22;28709;52.030;5.652;2023-07-09T02:55:12;22.50;98.20
43089;DHT22;28709;52.030;5.652;2023-07-09T02:57:37;22.50;98.40
43089;DHT22;28709;52.030;5.652;2023-07-09T03:00:03;22.40;98.50
43089;DHT22;28709;52.030;5.652;2023-07-09T03:02:31;22.40;98.70
43089;DHT22;28709;52.030;5.652;2023-07-09T03:04:56;22.30;98.90
43089;DHT22;28709;52.030;5.652;2023-07-09T03:07:22;22.30;98.90
43089;DHT22;28709;52.030;5.652;2023-07-09T03:09:47;22.30;99.00
43089;DHT22;28709;52.030;5.652;2023-07-09T03:12:13;22.30;99.00
43089;DHT22;28709;52.030;5.652;2023-07-09T03:14:39;22.30;99.10
43089;DHT22;28709;52.030;5.652;2023-07-09T03:17:04;22.30;99.10
43089;DHT22;28709;52.030;5.652;2023-07-09T03:19:30;22.30;99.10
43089;DHT22;28709;52.030;5.652;2023-07-09T03:21:55;22.30;99.20
43089;DHT22;28709;52.030;5.652;2023-07-09T03:24:21;22.30;99.20
43089;DHT22;28709;52.030;5.652;2023-07-09T03:26:47;22.30;99.30
43089;DHT22;28709;52.030;5.652;2023-07-09T03:29:13;22.30;99.30
43089;DHT22;28709;52.030;5.652;2023-07-09T03:31:39;22.30;99.40
43089;DHT22;28709;52.030;5.652;2023-07-09T03:34:04;22.30;99.40
43089;DHT22;28709;52.030;5.652;2023-07-09T03:36:30;22.30;99.50
43089;DHT22;28709;52.030;5.652;2023-07-09T03:38:56;22.30;99.60
43089;DHT22;28709;52.030;5.652;2023-07-09T03:41:21;22.30;99.60
43089;DHT22;28709;52.030;5.652;2023-07-09T03:43:47;22.40;99.70
43089;DHT22;28709;52.030;5.652;2023-07-09T03:46:15;22.40;99.70
43089;DHT22;28709;52.030;5.652;2023-07-09T03:48:41;22.40;99.70
43089;DHT22;28709;52.030;5.652;2023-07-09T03:51:06;22.40;99.80
43089;DHT22;28709;52.030;5.652;2023-07-09T03:53:32;22.40;99.80
43089;DHT22;28709;52.030;5.652;2023-07-09T03:55:57;22.40;99.90
43089;DHT22;28709;52.030;5.652;2023-07-09T03:58:25;22.50;99.90
43089;DHT22;28709;52.030;5.652;2023-07-09T04:00:51;22.50;99.90
43089;DHT22;28709;52.030;5.652;2023-07-09T04:03:17;22.50;99.90
43089;DHT22;28709;52.030;5.652;2023-07-09T04:05:43;22.60;99.90
43089;DHT22;28709;52.030;5.652;2023-07-09T04:08:08;22.60;99.90
43089;DHT22;28709;52.030;5.652;2023-07-09T04:10:34;22.60;99.90
43089;DHT22;28709;52.030;5.652;2023-07-09T04:13:00;22.70;99.90
43089;DHT22;28709;52.030;5.652;2023-07-09T04:15:26;22.70;99.90
43089;DHT22;28709;52.030;5.652;2023-07-09T04:17:52;22.70;99.90
43089;DHT22;28709;52.030;5.652;2023-07-09T04:20:17;22.70;99.90
43089;DHT22;28709;52.030;5.652;2023-07-09T04:22:44;22.60;99.90
43089;DHT22;28709;52.030;5.652;2023-07-09T04:25:11;22.70;99.90
43089;DHT22;28709;52.030;5.652;2023-07-09T04:27:38;22.70;99.90
43089;DHT22;28709;52.030;5.652;2023-07-09T04:30:12;22.70;99.90
43089;DHT22;28709;52.030;5.652;2023-07-09T04:32:38;22.70;99.90
43089;DHT22;28709;52.030;5.652;2023-07-09T04:35:04;22.70;99.90
43089;DHT22;28709;52.030;5.652;2023-07-09T04:37:33;22.70;99.90
43089;DHT22;28709;52.030;5.652;2023-07-09T04:39:58;22.70;99.90
43089;DHT22;28709;52.030;5.652;2023-07-09T04:42:24;22.80;99.90
43089;DHT22;28709;52.030;5.652;2023-07-09T04:44:50;22.80;99.90
43089;DHT22;28709;52.030;5.652;2023-07-09T04:47:15;22.80;99.90
43089;DHT22;28709;52.030;5.652;2023-07-09T04:49:41;22.90;99.90
43089;DHT22;28709;52.030;5.652;2023-07-09T04:52:08;22.90;99.90
43089;DHT22;28709;52.030;5.652;2023-07-09T04:54:39;23.00;99.90
43089;DHT22;28709;52.030;5.652;2023-07-09T04:57:05;23.00;99.90
43089;DHT22;28709;52.030;5.652;2023-07-09T04:59:31;23.00;99.90
43089;DHT22;28709;52.030;5.652;2023-07-09T05:01:57;23.00;99.90
43089;DHT22;28709;52.030;5.652;2023-07-09T05:04:22;23.10;99.90
43089;DHT22;28709;52.030;5.652;2023-07-09T05:06:48;23.10;99.90
43089;DHT22;28709;52.030;5.652;2023-07-09T05:09:14;23.20;99.90
43089;DHT22;28709;52.030;5.652;2023-07-09T05:11:39;23.20;99.90
43089;DHT22;28709;52.030;5.652;2023-07-09T05:14:05;23.30;99.90
43089;DHT22;28709;52.030;5.652;2023-07-09T05:16:30;23.30;99.90
43089;DHT22;28709;52.030;5.652;2023-07-09T05:18:56;23.40;99.90
43089;DHT22;28709;52.030;5.652;2023-07-09T05:21:22;23.40;99.90
43089;DHT22;28709;52.030;5.652;2023-07-09T05:23:47;23.50;99.90
43089;DHT22;28709;52.030;5.652;2023-07-09T05:26:13;23.50;99.90
43089;DHT22;28709;52.030;5.652;2023-07-09T05:28:39;23.60;99.90
43089;DHT22;28709;52.030;5.652;2023-07-09T05:31:05;23.70;99.90
43089;DHT22;28709;52.030;5.652;2023-07-09T05:33:31;23.70;99.90
43089;DHT22;28709;52.030;5.652;2023-07-09T05:35:57;23.80;99.90
43089;DHT22;28709;52.030;5.652;2023-07-09T05:38:22;23.90;99.90
43089;DHT22;28709;52.030;5.652;2023-07-09T05:40:48;24.00;99.90
43089;DHT22;28709;52.030;5.652;2023-07-09T05:43:14;24.20;99.90
43089;DHT22;28709;52.030;5.652;2023-07-09T05:45:40;24.30;99.90
43089;DHT22;28709;52.030;5.652;2023-07-09T05:48:06;24.40;99.90
43089;DHT22;28709;52.030;5.652;2023-07-09T05:50:34;24.40;99.90
43089;DHT22;28709;52.030;5.652;2023-07-09T05:53:00;24.50;99.90
43089;DHT22;28709;52.030;5.652;2023-07-09T05:55:26;24.70;99.90
43089;DHT22;28709;52.030;5.652;2023-07-09T05:57:53;24.70;99.90
43089;DHT22;28709;52.030;5.652;2023-07-09T06:00:19;24.80;99.90
43089;DHT22;28709;52.030;5.652;2023-07-09T06:02:45;25.00;99.90
43089;DHT22;28709;52.030;5.652;2023-07-09T06:05:11;25.00;99.90
43089;DHT22;28709;52.030;5.652;2023-07-09T06:07:37;25.20;99.90
43089;DHT22;28709;52.030;5.652;2023-07-09T06:10:05;25.20;99.90
43089;DHT22;28709;52.030;5.652;2023-07-09T06:12:31;25.40;99.90
43089;DHT22;28709;52.030;5.652;2023-07-09T06:14:56;25.50;99.90
43089;DHT22;28709;52.030;5.652;2023-07-09T06:17:22;25.60;99.90
43089;DHT22;28709;52.030;5.652;2023-07-09T06:19:48;25.70;99.90
43089;DHT22;28709;52.030;5.652;2023-07-09T06:22:13;25.80;99.90
43089;DHT22;28709;52.030;5.652;2023-07-09T06:24:39;26.00;99.90
43089;DHT22;28709;52.030;5.652;2023-07-09T06:27:05;26.10;99.90
43089;DHT22;28709;52.030;5.652;2023-07-09T06:29:30;26.20;99.90
43089;DHT22;28709;52.030;5.652;2023-07-09T06:31:56;26.40;99.80
43089;DHT22;28709;52.030;5.652;2023-07-09T06:34:22;26.50;99.70
43089;DHT22;28709;52.030;5.652;2023-07-09T06:36:47;26.60;99.60
43089;DHT22;28709;52.030;5.652;2023-07-09T06:39:13;26.70;99.70
43089;DHT22;28709;52.030;5.652;2023-07-09T06:41:38;26.80;99.70
43089;DHT22;28709;52.030;5.652;2023-07-09T06:44:06;26.90;99.70
43089;DHT22;28709;52.030;5.652;2023-07-09T06:46:32;27.00;99.60
43089;DHT22;28709;52.030;5.652;2023-07-09T06:48:58;27.20;99.40
43089;DHT22;28709;52.030;5.652;2023-07-09T06:51:23;27.30;99.20
43089;DHT22;28709;52.030;5.652;2023-07-09T06:53:49;27.30;99.20
43089;DHT22;28709;52.030;5.652;2023-07-09T06:56:16;27.50;99.20
43089;DHT22;28709;52.030;5.652;2023-07-09T06:58:41;27.60;98.90
43089;DHT22;28709;52.030;5.652;2023-07-09T07:01:07;27.70;98.70
43089;DHT22;28709;52.030;5.652;2023-07-09T07:03:35;27.80;98.60
43089;DHT22;28709;52.030;5.652;2023-07-09T07:06:01;28.00;98.60
43089;DHT22;28709;52.030;5.652;2023-07-09T07:08:27;28.10;98.30
43089;DHT22;28709;52.030;5.652;2023-07-09T07:10:56;28.20;98.20
43089;DHT22;28709;52.030;5.652;2023-07-09T07:13:35;28.40;98.10
43089;DHT22;28709;52.030;5.652;2023-07-09T07:16:01;28.50;97.40
43089;DHT22;28709;52.030;5.652;2023-07-09T07:18:27;28.60;96.80
43089;DHT22;28709;52.030;5.652;2023-07-09T07:20:53;28.70;96.30
43089;DHT22;28709;52.030;5.652;2023-07-09T07:23:19;28.80;96.20
43089;DHT22;28709;52.030;5.652;2023-07-09T07:25:45;28.90;96.00
43089;DHT22;28709;52.030;5.652;2023-07-09T07:28:11;29.10;95.70
43089;DHT22;28709;52.030;5.652;2023-07-09T07:30:37;29.20;95.60
43089;DHT22;28709;52.030;5.652;2023-07-09T07:33:03;29.30;95.50
43089;DHT22;28709;52.030;5.652;2023-07-09T07:35:28;29.50;95.60
43089;DHT22;28709;52.030;5.652;2023-07-09T07:37:54;29.70;95.30
43089;DHT22;28709;52.030;5.652;2023-07-09T07:40:20;29.80;95.30
43089;DHT22;28709;52.030;5.652;2023-07-09T07:42:46;30.00;95.00
43089;DHT22;28709;52.030;5.652;2023-07-09T07:45:12;30.20;94.50
43089;DHT22;28709;52.030;5.652;2023-07-09T07:47:38;30.40;93.80
43089;DHT22;28709;52.030;5.652;2023-07-09T07:50:05;30.60;93.40
43089;DHT22;28709;52.030;5.652;2023-07-09T07:52:31;30.60;93.30
43089;DHT22;28709;52.030;5.652;2023-07-09T07:54:57;30.70;93.10
43089;DHT22;28709;52.030;5.652;2023-07-09T07:57:25;30.80;93.00
43089;DHT22;28709;52.030;5.652;2023-07-09T07:59:51;31.00;93.00
43089;DHT22;28709;52.030;5.652;2023-07-09T08:02:17;31.10;92.80
43089;DHT22;28709;52.030;5.652;2023-07-09T08:04:43;31.30;92.60
43089;DHT22;28709;52.030;5.652;2023-07-09T08:07:10;31.40;92.40
43089;DHT22;28709;52.030;5.652;2023-07-09T08:09:36;31.60;92.20
43089;DHT22;28709;52.030;5.652;2023-07-09T08:12:03;31.70;91.70
43089;DHT22;28709;52.030;5.652;2023-07-09T08:14:35;31.70;90.80
43089;DHT22;28709;52.030;5.652;2023-07-09T08:17:01;31.70;90.60
43089;DHT22;28709;52.030;5.652;2023-07-09T08:19:26;31.80;90.50
43089;DHT22;28709;52.030;5.652;2023-07-09T08:21:52;31.70;89.80
43089;DHT22;28709;52.030;5.652;2023-07-09T08:24:18;31.70;90.10
43089;DHT22;28709;52.030;5.652;2023-07-09T08:26:43;31.80;90.60
43089;DHT22;28709;52.030;5.652;2023-07-09T08:29:09;31.80;90.30
43089;DHT22;28709;52.030;5.652;2023-07-09T08:31:35;32.00;90.30
43089;DHT22;28709;52.030;5.652;2023-07-09T08:34:01;32.10;90.50
43089;DHT22;28709;52.030;5.652;2023-07-09T08:36:27;32.20;90.10
43089;DHT22;28709;52.030;5.652;2023-07-09T08:38:53;32.30;89.80
43089;DHT22;28709;52.030;5.652;2023-07-09T08:41:27;32.30;89.90
43089;DHT22;28709;52.030;5.652;2023-07-09T08:44:14;32.40;88.80
43089;DHT22;28709;52.030;5.652;2023-07-09T08:50:07;32.50;88.20
43089;DHT22;28709;52.030;5.652;2023-07-09T08:52:43;32.60;88.50
43089;DHT22;28709;52.030;5.652;2023-07-09T08:55:15;32.70;88.50
43089;DHT22;28709;52.030;5.652;2023-07-09T08:57:44;32.80;87.30
43089;DHT22;28709;52.030;5.652;2023-07-09T09:00:33;32.80;86.50
43089;DHT22;28709;52.030;5.652;2023-07-09T09:03:05;33.00;86.20
43089;DHT22;28709;52.030;5.652;2023-07-09T09:05:41;33.00;86.00
43089;DHT22;28709;52.030;5.652;2023-07-09T09:11:44;33.20;85.50
43089;DHT22;28709;52.030;5.652;2023-07-09T09:14:35;33.10;85.90
43089;DHT22;28709;52.030;5.652;2023-07-09T09:17:11;33.20;86.60
43089;DHT22;28709;52.030;5.652;2023-07-09T09:19:45;33.30;85.50
43089;DHT22;28709;52.030;5.652;2023-07-09T09:22:14;33.30;85.30
43089;DHT22;28709;52.030;5.652;2023-07-09T09:27:19;33.40;83.70
43089;DHT22;28709;52.030;5.652;2023-07-09T09:29:45;33.40;84.20
43089;DHT22;28709;52.030;5.652;2023-07-09T09:32:31;33.40;83.40
43089;DHT22;28709;52.030;5.652;2023-07-09T09:35:14;33.50;83.90
43089;DHT22;28709;52.030;5.652;2023-07-09T09:37:44;33.50;83.40
43089;DHT22;28709;52.030;5.652;2023-07-09T09:40:10;33.60;83.60
43089;DHT22;28709;52.030;5.652;2023-07-09T09:42:35;33.80;84.10
43089;DHT22;28709;52.030;5.652;2023-07-09T09:45:02;33.90;83.70
43089;DHT22;28709;52.030;5.652;2023-07-09T09:47:28;34.00;83.60
43089;DHT22;28709;52.030;5.652;2023-07-09T09:49:54;34.00;82.90
43089;DHT22;28709;52.030;5.652;2023-07-09T09:52:20;34.00;82.60
43089;DHT22;28709;52.030;5.652;2023-07-09T09:54:52;34.10;82.60
43089;DHT22;28709;52.030;5.652;2023-07-09T09:57:22;34.20;83.00
43089;DHT22;28709;52.030;5.652;2023-07-09T09:59:48;34.30;83.10
43089;DHT22;28709;52.030;5.652;2023-07-09T10:02:20;34.40;82.00
43089;DHT22;28709;52.030;5.652;2023-07-09T10:04:46;34.40;82.50
43089;DHT22;28709;52.030;5.652;2023-07-09T10:07:31;34.60;82.70
43089;DHT22;28709;52.030;5.652;2023-07-09T10:10:00;34.70;83.00
43089;DHT22;28709;52.030;5.652;2023-07-09T10:15:29;35.00;82.20
43089;DHT22;28709;52.030;5.652;2023-07-09T10:21:05;35.10;78.80
43089;DHT22;28709;52.030;5.652;2023-07-09T10:26:38;35.00;76.80
43089;DHT22;28709;52.030;5.652;2023-07-09T10:32:09;35.10;77.60
43089;DHT22;28709;52.030;5.652;2023-07-09T10:35:10;35.30;77.30
43089;DHT22;28709;52.030;5.652;2023-07-09T10:40:36;35.20;76.80
43089;DHT22;28709;52.030;5.652;2023-07-09T10:43:04;35.30;76.90
43089;DHT22;28709;52.030;5.652;2023-07-09T10:45:40;35.30;76.50
43089;DHT22;28709;52.030;5.652;2023-07-09T10:48:12;35.40;76.80
43089;DHT22;28709;52.030;5.652;2023-07-09T10:50:49;35.60;76.40
43089;DHT22;28709;52.030;5.652;2023-07-09T10:53:29;35.70;75.90
43089;DHT22;28709;52.030;5.652;2023-07-09T10:59:22;36.00;76.10
43089;DHT22;28709;52.030;5.652;2023-07-09T11:01:59;36.00;75.60
43089;DHT22;28709;52.030;5.652;2023-07-09T11:05:15;36.00;76.00
43089;DHT22;28709;52.030;5.652;2023-07-09T11:07:22;35.90;74.90
43089;DHT22;28709;52.030;5.652;2023-07-09T11:09:49;35.80;74.70
43089;DHT22;28709;52.030;5.652;2023-07-09T11:15:00;35.80;75.10
43089;DHT22;28709;52.030;5.652;2023-07-09T11:17:27;35.80;74.40
43089;DHT22;28709;52.030;5.652;2023-07-09T11:19:56;35.80;74.40
43089;DHT22;28709;52.030;5.652;2023-07-09T11:22:36;35.80;72.90
43089;DHT22;28709;52.030;5.652;2023-07-09T11:25:15;35.70;71.80
43089;DHT22;28709;52.030;5.652;2023-07-09T11:27:54;35.60;70.90
43089;DHT22;28709;52.030;5.652;2023-07-09T11:30:26;35.40;71.20
43089;DHT22;28709;52.030;5.652;2023-07-09T11:33:03;35.50;72.20
43089;DHT22;28709;52.030;5.652;2023-07-09T11:36:06;35.70;71.50
43089;DHT22;28709;52.030;5.652;2023-07-09T11:38:43;35.70;70.90
43089;DHT22;28709;52.030;5.652;2023-07-09T11:43:51;35.50;69.80
43089;DHT22;28709;52.030;5.652;2023-07-09T11:46:20;35.30;70.20
43089;DHT22;28709;52.030;5.652;2023-07-09T11:48:48;35.20;70.20
43089;DHT22;28709;52.030;5.652;2023-07-09T11:51:17;35.20;70.40
43089;DHT22;28709;52.030;5.652;2023-07-09T11:53:55;35.20;70.60
43089;DHT22;28709;52.030;5.652;2023-07-09T11:56:23;35.10;70.10
43089;DHT22;28709;52.030;5.652;2023-07-09T11:58:57;34.90;70.20
43089;DHT22;28709;52.030;5.652;2023-07-09T12:01:33;34.80;71.20
43089;DHT22;28709;52.030;5.652;2023-07-09T12:03:59;34.80;71.60
43089;DHT22;28709;52.030;5.652;2023-07-09T12:06:31;34.70;71.70
43089;DHT22;28709;52.030;5.652;2023-07-09T12:08:57;34.80;71.70
43089;DHT22;28709;52.030;5.652;2023-07-09T12:11:24;34.70;71.70
43089;DHT22;28709;52.030;5.652;2023-07-09T12:13:51;34.70;72.20
43089;DHT22;28709;52.030;5.652;2023-07-09T12:16:36;34.70;72.70
43089;DHT22;28709;52.030;5.652;2023-07-09T12:19:02;34.60;72.90
43089;DHT22;28709;52.030;5.652;2023-07-09T12:21:31;34.60;73.00
43089;DHT22;28709;52.030;5.652;2023-07-09T12:23:57;34.60;72.90
43089;DHT22;28709;52.030;5.652;2023-07-09T12:26:24;34.50;73.30
43089;DHT22;28709;52.030;5.652;2023-07-09T12:28:56;34.40;73.00
43089;DHT22;28709;52.030;5.652;2023-07-09T12:31:29;34.30;72.90
43089;DHT22;28709;52.030;5.652;2023-07-09T12:33:57;34.20;73.90
43089;DHT22;28709;52.030;5.652;2023-07-09T12:36:25;34.20;73.10
43089;DHT22;28709;52.030;5.652;2023-07-09T12:38:53;34.10;73.10
43089;DHT22;28709;52.030;5.652;2023-07-09T12:41:29;34.00;73.20
43089;DHT22;28709;52.030;5.652;2023-07-09T12:43:59;34.00;73.80
43089;DHT22;28709;52.030;5.652;2023-07-09T12:46:25;34.00;75.20
43089;DHT22;28709;52.030;5.652;2023-07-09T12:48:54;34.00;76.20
43089;DHT22;28709;52.030;5.652;2023-07-09T12:51:25;34.00;76.50
43089;DHT22;28709;52.030;5.652;2023-07-09T12:54:27;34.00;76.80
43089;DHT22;28709;52.030;5.652;2023-07-09T12:56:54;34.00;76.90
43089;DHT22;28709;52.030;5.652;2023-07-09T12:59:39;34.00;77.30
43089;DHT22;28709;52.030;5.652;2023-07-09T13:02:18;34.00;77.50
43089;DHT22;28709;52.030;5.652;2023-07-09T13:04:45;34.10;77.20
43089;DHT22;28709;52.030;5.652;2023-07-09T13:09:51;34.20;76.50
43089;DHT22;28709;52.030;5.652;2023-07-09T13:12:16;34.10;76.90
43089;DHT22;28709;52.030;5.652;2023-07-09T13:14:42;34.10;77.30
43089;DHT22;28709;52.030;5.652;2023-07-09T13:17:16;34.20;77.70
43089;DHT22;28709;52.030;5.652;2023-07-09T13:19:42;34.20;76.80
43089;DHT22;28709;52.030;5.652;2023-07-09T13:22:10;34.00;76.80
43089;DHT22;28709;52.030;5.652;2023-07-09T13:24:38;33.80;78.70
43089;DHT22;28709;52.030;5.652;2023-07-09T13:27:04;33.70;80.00
43089;DHT22;28709;52.030;5.652;2023-07-09T13:29:31;33.50;80.20
43089;DHT22;28709;52.030;5.652;2023-07-09T13:31:58;33.20;81.50
43089;DHT22;28709;52.030;5.652;2023-07-09T13:34:27;33.10;82.60
43089;DHT22;28709;52.030;5.652;2023-07-09T13:36:54;32.90;83.10
43089;DHT22;28709;52.030;5.652;2023-07-09T13:39:22;32.70;83.80
43089;DHT22;28709;52.030;5.652;2023-07-09T13:41:50;32.20;83.20
43089;DHT22;28709;52.030;5.652;2023-07-09T13:44:22;31.80;84.00
43089;DHT22;28709;52.030;5.652;2023-07-09T13:46:51;31.50;84.60
43089;DHT22;28709;52.030;5.652;2023-07-09T13:49:20;31.30;84.90
43089;DHT22;28709;52.030;5.652;2023-07-09T13:51:56;31.20;85.60
43089;DHT22;28709;52.030;5.652;2023-07-09T13:54:30;31.00;84.90
43089;DHT22;28709;52.030;5.652;2023-07-09T13:57:01;30.80;84.70
43089;DHT22;28709;52.030;5.652;2023-07-09T13:59:28;30.50;84.80
43089;DHT22;28709;52.030;5.652;2023-07-09T14:01:56;30.30;84.70
43089;DHT22;28709;52.030;5.652;2023-07-09T14:04:24;30.00;85.10
43089;DHT22;28709;52.030;5.652;2023-07-09T14:06:50;29.90;85.60
43089;DHT22;28709;52.030;5.652;2023-07-09T14:09:16;29.70;86.00
43089;DHT22;28709;52.030;5.652;2023-07-09T14:11:46;29.60;86.10
43089;DHT22;28709;52.030;5.652;2023-07-09T14:14:25;29.40;86.50
43089;DHT22;28709;52.030;5.652;2023-07-09T14:16:56;29.30;86.60
43089;DHT22;28709;52.030;5.652;2023-07-09T14:19:23;29.10;86.60
43089;DHT22;28709;52.030;5.652;2023-07-09T14:21:50;28.80;86.80
43089;DHT22;28709;52.030;5.652;2023-07-09T14:24:22;28.60;87.20
43089;DHT22;28709;52.030;5.652;2023-07-09T14:26:50;28.50;87.70
43089;DHT22;28709;52.030;5.652;2023-07-09T14:29:15;28.30;88.20
43089;DHT22;28709;52.030;5.652;2023-07-09T14:31:42;28.20;88.40
43089;DHT22;28709;52.030;5.652;2023-07-09T14:34:27;28.10;88.90
43089;DHT22;28709;52.030;5.652;2023-07-09T14:36:56;28.00;88.40
43089;DHT22;28709;52.030;5.652;2023-07-09T14:39:22;27.90;88.40
43089;DHT22;28709;52.030;5.652;2023-07-09T14:41:48;27.70;88.30
43089;DHT22;28709;52.030;5.652;2023-07-09T14:44:23;27.60;88.30
43089;DHT22;28709;52.030;5.652;2023-07-09T14:46:50;27.50;88.60
43089;DHT22;28709;52.030;5.652;2023-07-09T14:49:18;27.40;89.80
43089;DHT22;28709;52.030;5.652;2023-07-09T14:51:44;27.30;90.90
43089;DHT22;28709;52.030;5.652;2023-07-09T14:54:39;27.10;91.60
43089;DHT22;28709;52.030;5.652;2023-07-09T14:57:15;26.50;95.00
43089;DHT22;28709;52.030;5.652;2023-07-09T14:59:42;25.90;95.40
43089;DHT22;28709;52.030;5.652;2023-07-09T15:02:21;25.40;96.00
43089;DHT22;28709;52.030;5.652;2023-07-09T15:04:47;25.00;97.20
43089;DHT22;28709;52.030;5.652;2023-07-09T15:07:14;24.60;98.20
43089;DHT22;28709;52.030;5.652;2023-07-09T15:09:40;24.20;99.30
43089;DHT22;28709;52.030;5.652;2023-07-09T15:12:16;23.70;99.90
43089;DHT22;28709;52.030;5.652;2023-07-09T15:14:43;23.50;99.90
43089;DHT22;28709;52.030;5.652;2023-07-09T15:17:11;23.40;99.90
43089;DHT22;28709;52.030;5.652;2023-07-09T15:19:37;23.40;99.90
43089;DHT22;28709;52.030;5.652;2023-07-09T15:22:04;23.40;99.90
43089;DHT22;28709;52.030;5.652;2023-07-09T15:24:35;23.30;99.90
43089;DHT22;28709;52.030;5.652;2023-07-09T15:27:01;23.30;99.90
43089;DHT22;28709;52.030;5.652;2023-07-09T15:29:28;23.30;99.90
43089;DHT22;28709;52.030;5.652;2023-07-09T15:31:54;23.40;99.90
43089;DHT22;28709;52.030;5.652;2023-07-09T15:34:20;23.50;99.90
43089;DHT22;28709;52.030;5.652;2023-07-09T15:36:51;23.60;99.90
43089;DHT22;28709;52.030;5.652;2023-07-09T15:39:18;23.70;99.90
43089;DHT22;28709;52.030;5.652;2023-07-09T15:41:44;23.70;99.90
43089;DHT22;28709;52.030;5.652;2023-07-09T15:44:12;23.70;99.90
43089;DHT22;28709;52.030;5.652;2023-07-09T15:46:40;23.80;99.90
43089;DHT22;28709;52.030;5.652;2023-07-09T15:49:07;23.80;99.90
43089;DHT22;28709;52.030;5.652;2023-07-09T15:51:32;23.80;99.90
43089;DHT22;28709;52.030;5.652;2023-07-09T15:53:58;23.80;99.90
43089;DHT22;28709;52.030;5.652;2023-07-09T15:56:26;23.90;99.90
43089;DHT22;28709;52.030;5.652;2023-07-09T15:58:55;23.80;99.90
43089;DHT22;28709;52.030;5.652;2023-07-09T16:01:21;23.80;99.90
43089;DHT22;28709;52.030;5.652;2023-07-09T16:03:53;23.90;99.90
43089;DHT22;28709;52.030;5.652;2023-07-09T16:06:20;23.90;99.90
43089;DHT22;28709;52.030;5.652;2023-07-09T16:08:46;23.90;99.90
43089;DHT22;28709;52.030;5.652;2023-07-09T16:11:20;24.00;99.90
43089;DHT22;28709;52.030;5.652;2023-07-09T16:13:47;24.00;99.90
43089;DHT22;28709;52.030;5.652;2023-07-09T16:16:18;24.00;99.90
43089;DHT22;28709;52.030;5.652;2023-07-09T16:18:44;24.00;99.90
43089;DHT22;28709;52.030;5.652;2023-07-09T16:21:24;23.90;99.90
43089;DHT22;28709;52.030;5.652;2023-07-09T16:23:51;23.90;99.90